createdAt,value
2023-03-05T00:02:33.370Z,0.68
2023-03-05T00:05:19.374Z,0.55
2023-03-05T00:08:05.699Z,0.50
2023-03-05T00:11:02.038Z,0.88
2023-03-05T00:13:48.739Z,0.50
2023-03-05T00:16:35.058Z,0.90
2023-03-05T00:19:21.121Z,0.57
2023-03-05T00:22:07.888Z,0.60
2023-03-05T00:24:53.782Z,0.65
2023-03-05T00:27:39.819Z,0.68
2023-03-05T00:30:26.114Z,0.60
2023-03-05T00:33:13.489Z,0.50
2023-03-05T00:36:02.080Z,0.85
2023-03-05T00:38:48.319Z,0.45
2023-03-05T00:41:34.406Z,0.55
2023-03-05T00:44:21.266Z,0.63
2023-03-05T00:47:07.290Z,0.40
2023-03-05T00:49:53.167Z,0.30
2023-03-05T00:52:39.547Z,0.30
2023-03-05T00:55:25.703Z,0.50
2023-03-05T00:58:11.711Z,0.50
2023-03-05T01:01:00.168Z,0.45
2023-03-05T01:03:46.779Z,0.50
2023-03-05T01:06:32.914Z,0.70
2023-03-05T01:09:19.000Z,0.50
2023-03-05T01:12:05.605Z,0.50
2023-03-05T01:14:51.649Z,0.50
2023-03-05T01:17:38.340Z,0.60
2023-03-05T01:20:24.297Z,0.50
2023-03-05T01:23:10.329Z,0.65
2023-03-05T01:25:58.469Z,0.95
2023-03-05T01:28:45.640Z,0.70
2023-03-05T01:31:31.498Z,1.05
2023-03-05T01:34:18.229Z,0.60
2023-03-05T01:37:04.933Z,1.13
2023-03-05T01:39:50.945Z,0.77
2023-03-05T01:42:37.126Z,0.55
2023-03-05T01:45:23.165Z,0.73
2023-03-05T01:48:09.489Z,0.60
2023-03-05T01:50:55.479Z,0.80
2023-03-05T01:53:42.037Z,0.77
2023-03-05T01:56:29.610Z,0.60
2023-03-05T01:59:16.950Z,0.52
2023-03-05T02:02:04.135Z,0.70
2023-03-05T02:04:55.157Z,0.52
2023-03-05T02:07:43.129Z,0.60
2023-03-05T02:10:33.401Z,0.47
2023-03-05T02:13:32.761Z,0.55
2023-03-05T02:16:18.832Z,0.55
2023-03-05T02:19:07.303Z,0.57
2023-03-05T02:21:53.841Z,0.55
2023-03-05T02:24:39.970Z,0.45
2023-03-05T02:27:35.339Z,0.70
2023-03-05T02:30:21.808Z,1.08
2023-03-05T02:33:08.201Z,1.10
2023-03-05T02:35:54.446Z,1.20
2023-03-05T02:38:41.685Z,1.00
2023-03-05T02:41:28.555Z,1.27
2023-03-05T02:44:17.533Z,1.10
2023-03-05T02:47:03.457Z,0.85
2023-03-05T02:49:50.888Z,1.15
2023-03-05T02:52:38.372Z,0.73
2023-03-05T02:55:29.158Z,0.60
2023-03-05T02:58:15.388Z,0.80
2023-03-05T03:01:01.468Z,0.82
2023-03-05T03:03:47.844Z,0.85
2023-03-05T03:06:33.825Z,0.80
2023-03-05T03:09:20.155Z,0.80
2023-03-05T03:12:08.387Z,0.70
2023-03-05T03:14:55.334Z,0.90
2023-03-05T03:17:41.667Z,0.80
2023-03-05T03:20:27.544Z,0.57
2023-03-05T03:23:13.550Z,0.95
2023-03-05T03:25:59.712Z,0.80
2023-03-05T03:28:46.106Z,0.80
2023-03-05T03:31:32.287Z,0.75
2023-03-05T03:34:18.910Z,0.80
2023-03-05T03:37:05.122Z,0.75
2023-03-05T03:39:51.599Z,0.52
2023-03-05T03:42:37.638Z,0.90
2023-03-05T03:45:23.784Z,1.23
2023-03-05T03:48:11.099Z,0.90
2023-03-05T03:50:57.151Z,0.60
2023-03-05T03:53:43.118Z,0.70
2023-03-05T03:56:29.595Z,0.77
2023-03-05T03:59:15.557Z,0.75
2023-03-05T04:02:01.532Z,0.90
2023-03-05T04:04:47.603Z,0.60
2023-03-05T04:07:33.886Z,0.63
2023-03-05T04:10:19.478Z,0.85
2023-03-05T04:13:05.617Z,0.85
2023-03-05T04:15:51.998Z,0.80
2023-03-05T04:18:38.264Z,0.68
2023-03-05T04:21:24.500Z,0.80
2023-03-05T04:24:10.537Z,1.00
2023-03-05T04:26:56.630Z,1.02
2023-03-05T04:29:42.854Z,0.90
2023-03-05T04:32:30.016Z,0.88
2023-03-05T04:35:16.329Z,1.08
2023-03-05T04:38:02.384Z,0.95
2023-03-05T04:40:48.518Z,0.90
2023-03-05T04:43:34.527Z,0.70
2023-03-05T04:46:20.601Z,0.90
2023-03-05T04:49:07.032Z,0.70
2023-03-05T04:51:53.279Z,0.85
2023-03-05T04:54:39.717Z,0.93
2023-03-05T04:57:25.787Z,1.02
2023-03-05T05:00:15.352Z,1.05
2023-03-05T05:03:01.376Z,1.13
2023-03-05T05:06:01.575Z,0.98
2023-03-05T05:08:47.415Z,1.23
2023-03-05T05:11:33.513Z,0.90
2023-03-05T05:14:20.041Z,1.23
2023-03-05T05:17:06.171Z,1.10
2023-03-05T05:19:51.917Z,1.13
2023-03-05T05:22:37.900Z,0.80
2023-03-05T05:25:24.138Z,0.80
2023-03-05T05:28:11.136Z,0.68
2023-03-05T05:30:57.781Z,0.52
2023-03-05T05:33:43.596Z,0.77
2023-03-05T05:36:29.738Z,0.70
2023-03-05T05:39:15.989Z,0.50
2023-03-05T05:42:02.335Z,0.50
2023-03-05T05:44:48.543Z,0.60
2023-03-05T05:47:34.846Z,0.50
2023-03-05T05:50:21.363Z,0.40
2023-03-05T05:53:07.464Z,0.40
2023-03-05T05:55:53.469Z,0.60
2023-03-05T05:58:41.528Z,0.40
2023-03-05T06:01:48.124Z,0.55
2023-03-05T06:04:35.203Z,0.65
2023-03-05T06:07:21.312Z,0.68
2023-03-05T06:10:08.573Z,0.30
2023-03-05T06:12:54.568Z,0.40
2023-03-05T06:15:40.721Z,0.95
2023-03-05T06:18:27.107Z,0.50
2023-03-05T06:21:16.275Z,0.43
2023-03-05T06:24:02.590Z,0.68
2023-03-05T06:26:49.416Z,0.50
2023-03-05T06:29:35.332Z,0.40
2023-03-05T06:32:21.932Z,0.35
2023-03-05T06:35:09.113Z,0.40
2023-03-05T06:37:55.007Z,0.40
2023-03-05T06:40:41.080Z,0.35
2023-03-05T06:43:27.221Z,0.40
2023-03-05T06:46:15.078Z,0.28
2023-03-05T06:49:02.956Z,0.30
2023-03-05T06:51:48.999Z,0.30
2023-03-05T06:54:35.285Z,0.50
2023-03-05T06:57:21.242Z,0.20
2023-03-05T07:00:10.220Z,0.50
2023-03-05T07:02:55.922Z,0.30
2023-03-05T07:05:42.860Z,0.30
2023-03-05T07:08:29.196Z,0.50
2023-03-05T07:11:18.038Z,0.68
2023-03-05T07:14:04.399Z,0.65
2023-03-05T07:16:50.774Z,0.60
2023-03-05T07:19:38.066Z,0.60
2023-03-05T07:22:23.987Z,0.68
2023-03-05T07:25:10.094Z,0.65
2023-03-05T07:27:57.125Z,0.70
2023-03-05T07:30:43.006Z,0.80
2023-03-05T07:33:29.244Z,0.93
2023-03-05T07:36:16.020Z,0.93
2023-03-05T07:39:02.664Z,0.93
2023-03-05T07:41:50.963Z,1.02
2023-03-05T07:44:37.082Z,1.00
2023-03-05T07:47:26.022Z,1.02
2023-03-05T07:50:12.325Z,1.00
2023-03-05T07:52:58.524Z,0.90
2023-03-05T07:55:46.727Z,1.20
2023-03-05T07:58:33.004Z,0.90
2023-03-05T08:01:19.390Z,0.90
2023-03-05T08:04:07.120Z,1.10
2023-03-05T08:06:55.532Z,1.00
2023-03-05T08:09:42.972Z,0.80
2023-03-05T08:12:30.175Z,0.80
2023-03-05T08:15:17.144Z,0.80
2023-03-05T08:18:03.425Z,0.82
2023-03-05T08:20:49.340Z,0.95
2023-03-05T08:23:35.715Z,0.95
2023-03-05T08:26:23.544Z,0.80
2023-03-05T08:29:41.561Z,0.90
2023-03-05T08:32:27.996Z,0.90
2023-03-05T08:35:36.280Z,0.82
2023-03-05T08:38:22.384Z,0.95
2023-03-05T08:41:08.798Z,1.00
2023-03-05T08:43:55.098Z,0.75
2023-03-05T08:46:41.351Z,0.55
2023-03-05T08:49:27.550Z,0.68
2023-03-05T08:52:13.790Z,0.75
2023-03-05T08:54:59.740Z,0.70
2023-03-05T08:57:45.931Z,0.88
2023-03-05T09:00:32.053Z,0.75
2023-03-05T09:03:18.660Z,0.60
2023-03-05T09:06:07.748Z,0.77
2023-03-05T09:08:54.859Z,0.82
2023-03-05T09:11:40.635Z,0.70
2023-03-05T09:14:28.637Z,0.95
2023-03-05T09:17:14.766Z,0.90
2023-03-05T09:20:01.149Z,0.90
2023-03-05T09:25:54.243Z,0.70
2023-03-05T09:28:40.748Z,0.90
2023-03-05T09:31:26.935Z,0.60
2023-03-05T09:34:13.075Z,0.90
2023-03-05T09:36:59.225Z,0.70
2023-03-05T09:39:45.591Z,0.90
2023-03-05T09:43:22.321Z,0.85
2023-03-05T09:46:36.198Z,0.95
2023-03-05T09:49:50.763Z,0.90
2023-03-05T09:52:45.982Z,0.63
2023-03-05T09:55:44.091Z,0.73
2023-03-05T09:58:40.522Z,0.80
2023-03-05T10:01:40.145Z,0.60
2023-03-05T10:04:39.290Z,0.80
2023-03-05T10:07:31.195Z,0.70
2023-03-05T10:10:32.609Z,0.80
2023-03-05T10:13:37.245Z,0.50
2023-03-05T10:17:10.866Z,0.70
2023-03-05T10:20:18.842Z,0.95
2023-03-05T10:23:26.576Z,0.60
2023-03-05T10:30:24.148Z,0.90
2023-03-05T10:33:18.448Z,0.85
2023-03-05T10:36:16.268Z,1.05
2023-03-05T10:39:27.963Z,0.70
2023-03-05T10:42:38.278Z,0.82
2023-03-05T10:45:55.269Z,0.52
2023-03-05T10:49:17.478Z,0.70
2023-03-05T10:52:18.733Z,0.50
2023-03-05T10:55:16.811Z,0.57
2023-03-05T10:58:12.584Z,0.38
2023-03-05T11:01:10.776Z,0.45
2023-03-05T11:04:03.911Z,0.40
2023-03-05T11:06:56.969Z,0.50
2023-03-05T11:10:04.174Z,0.50
2023-03-05T11:12:50.258Z,0.38
2023-03-05T11:15:36.524Z,0.40
2023-03-05T11:18:24.357Z,0.30
2023-03-05T11:21:28.131Z,0.50
2023-03-05T11:24:19.433Z,0.40
2023-03-05T11:27:42.828Z,0.40
2023-03-05T11:30:35.628Z,0.30
2023-03-05T11:33:24.006Z,0.50
2023-03-05T11:36:24.009Z,0.93
2023-03-05T11:39:18.386Z,0.70
2023-03-05T11:42:25.465Z,0.70
2023-03-05T11:45:18.123Z,0.63
2023-03-05T11:48:13.822Z,0.50
2023-03-05T11:51:02.470Z,0.55
2023-03-05T11:53:55.714Z,0.75
2023-03-05T11:56:43.985Z,0.70
2023-03-05T11:59:35.390Z,0.55
2023-03-05T12:02:24.943Z,0.52
2023-03-05T12:05:16.065Z,0.50
2023-03-05T12:08:03.117Z,0.35
2023-03-05T12:10:49.133Z,0.52
2023-03-05T12:13:44.198Z,0.30
2023-03-05T12:16:35.762Z,0.50
2023-03-05T12:19:56.926Z,0.30
2023-03-05T12:22:43.785Z,0.30
2023-03-05T12:25:48.332Z,0.45
2023-03-05T12:28:43.120Z,0.50
2023-03-05T12:31:38.136Z,0.35
2023-03-05T12:34:39.372Z,0.52
2023-03-05T12:37:25.042Z,0.60
2023-03-05T12:40:26.878Z,0.40
2023-03-05T12:43:33.911Z,0.52
2023-03-05T12:46:29.290Z,0.30
2023-03-05T12:49:18.393Z,0.60
2023-03-05T12:52:05.786Z,0.50
2023-03-05T12:55:24.271Z,0.63
2023-03-05T12:58:36.424Z,0.40
2023-03-05T13:01:51.057Z,0.47
2023-03-05T13:04:46.225Z,0.40
2023-03-05T13:07:32.602Z,0.50
2023-03-05T13:10:27.858Z,0.63
2023-03-05T13:13:16.665Z,0.30
2023-03-05T13:16:03.941Z,0.40
2023-03-05T13:22:10.939Z,0.50
2023-03-05T13:25:05.194Z,0.68
2023-03-05T13:27:51.257Z,0.30
2023-03-05T13:30:37.833Z,0.50
2023-03-05T13:33:37.540Z,0.63
2023-03-05T13:36:26.254Z,0.40
2023-03-05T13:39:23.203Z,0.85
2023-03-05T13:42:23.005Z,0.63
2023-03-05T13:45:28.352Z,0.60
2023-03-05T13:48:20.344Z,0.70
2023-03-05T13:51:07.340Z,0.50
2023-03-05T13:53:53.892Z,0.47
2023-03-05T13:56:59.402Z,0.50
2023-03-05T13:59:53.266Z,0.50
2023-03-05T14:02:44.489Z,0.55
2023-03-05T14:05:31.756Z,0.43
2023-03-05T14:08:25.637Z,0.80
2023-03-05T14:11:14.681Z,0.60
2023-03-05T14:14:14.942Z,0.55
2023-03-05T14:17:23.954Z,0.80
2023-03-05T14:20:12.983Z,0.68
2023-03-05T14:23:01.892Z,0.88
2023-03-05T14:25:48.084Z,0.80
2023-03-05T14:28:34.684Z,0.50
2023-03-05T14:31:21.318Z,0.63
2023-03-05T14:34:08.191Z,0.90
2023-03-05T14:37:35.584Z,0.90
2023-03-05T14:40:27.531Z,0.70
2023-03-05T14:43:13.918Z,0.73
2023-03-05T14:46:00.630Z,0.70
2023-03-05T14:48:47.641Z,0.82
2023-03-05T14:51:38.401Z,0.57
2023-03-05T14:54:27.144Z,0.70
2023-03-05T14:57:26.184Z,0.70
2023-03-05T15:00:25.645Z,0.77
2023-03-05T15:03:13.333Z,0.70
2023-03-05T15:06:00.761Z,0.70
2023-03-05T15:08:46.805Z,0.65
2023-03-05T15:11:33.655Z,0.80
2023-03-05T15:14:19.673Z,1.00
2023-03-05T15:17:06.053Z,0.90
2023-03-05T15:19:53.982Z,0.82
2023-03-05T15:22:39.907Z,1.23
2023-03-05T15:25:29.347Z,1.20
2023-03-05T15:28:15.928Z,1.45
2023-03-05T15:31:02.957Z,1.38
2023-03-05T15:33:49.221Z,1.40
2023-03-05T15:36:35.147Z,1.25
2023-03-05T15:39:20.991Z,1.35
2023-03-05T15:42:07.086Z,1.30
2023-03-05T15:44:52.922Z,1.10
2023-03-05T15:47:39.324Z,1.20
2023-03-05T15:50:25.183Z,1.20
2023-03-05T15:53:18.749Z,1.15
2023-03-05T15:56:04.626Z,1.38
2023-03-05T15:58:51.045Z,1.35
2023-03-05T16:01:38.244Z,2.00
2023-03-05T16:04:24.800Z,1.92
2023-03-05T16:07:11.944Z,3.25
2023-03-05T16:09:58.859Z,4.13
2023-03-05T16:12:47.630Z,3.50
2023-03-05T16:15:35.448Z,5.85
2023-03-05T16:18:21.818Z,5.57
2023-03-05T16:21:07.769Z,5.88
2023-03-05T16:23:57.466Z,4.57
2023-03-05T16:26:43.857Z,5.18
2023-03-05T16:29:31.792Z,4.97
2023-03-05T16:32:18.121Z,4.90
2023-03-05T16:35:04.059Z,4.05
2023-03-05T16:37:50.721Z,4.85
2023-03-05T16:41:06.223Z,4.18
2023-03-05T16:43:46.014Z,4.60
2023-03-05T16:46:34.865Z,4.20
2023-03-05T16:49:22.070Z,4.90
2023-03-05T16:52:18.633Z,4.88
2023-03-05T16:55:06.124Z,4.60
2023-03-05T16:57:52.297Z,4.93
2023-03-05T17:00:38.585Z,5.65
2023-03-05T17:03:24.978Z,5.95
2023-03-05T17:06:16.378Z,5.82
2023-03-05T17:09:03.546Z,6.70
2023-03-05T17:11:49.570Z,6.57
2023-03-05T17:14:35.489Z,6.50
2023-03-05T17:17:21.835Z,6.10
2023-03-05T17:20:08.770Z,7.10
2023-03-05T17:22:55.154Z,9.02
2023-03-05T17:25:41.477Z,8.90
2023-03-05T17:28:27.755Z,7.15
2023-03-05T17:31:14.911Z,8.07
2023-03-05T17:34:00.985Z,9.02
2023-03-05T17:36:47.137Z,8.30
2023-03-05T17:39:33.619Z,8.07
2023-03-05T17:42:29.445Z,9.00
2023-03-05T17:45:16.158Z,8.65
2023-03-05T17:48:09.444Z,9.52
2023-03-05T17:50:58.559Z,9.00
2023-03-05T17:53:45.265Z,7.82
2023-03-05T17:56:33.081Z,8.00
2023-03-05T17:59:46.846Z,7.50
2023-03-05T18:05:24.717Z,7.18
2023-03-05T18:08:10.904Z,7.55
2023-03-05T18:10:56.993Z,7.88
2023-03-05T18:13:43.606Z,7.80
2023-03-05T18:16:30.046Z,7.00
2023-03-05T18:19:16.234Z,7.75
2023-03-05T18:22:02.280Z,7.13
2023-03-05T18:24:49.144Z,7.85
2023-03-05T18:27:35.319Z,8.43
2023-03-05T18:33:24.861Z,8.23
2023-03-05T18:36:12.302Z,7.00
2023-03-05T18:38:58.214Z,7.00
2023-03-05T18:42:00.303Z,8.25
2023-03-05T18:44:46.686Z,8.70
2023-03-05T18:47:34.144Z,9.90
2023-03-05T18:50:21.549Z,10.02
2023-03-05T18:53:09.703Z,11.93
2023-03-05T18:55:56.203Z,9.30
2023-03-05T18:58:42.768Z,8.13
2023-03-05T19:01:33.171Z,8.88
2023-03-05T19:04:20.442Z,10.38
2023-03-05T19:07:06.632Z,10.45
2023-03-05T19:09:59.723Z,10.23
2023-03-05T19:16:44.148Z,9.57
2023-03-05T19:19:36.255Z,9.55
2023-03-05T19:22:23.435Z,8.52
2023-03-05T19:25:13.722Z,7.43
2023-03-05T19:27:59.615Z,7.90
2023-03-05T19:30:49.075Z,8.50
2023-03-05T19:33:35.508Z,8.00
2023-03-05T19:36:21.349Z,8.07
2023-03-05T19:39:08.801Z,7.53
2023-03-05T19:41:55.601Z,7.57
2023-03-05T19:44:41.956Z,6.70
2023-03-05T19:47:28.048Z,8.27
2023-03-05T19:50:15.725Z,6.80
2023-03-05T19:53:01.624Z,5.90
2023-03-05T19:55:47.721Z,5.95
2023-03-05T19:58:34.450Z,6.30
2023-03-05T20:01:28.098Z,6.68
2023-03-05T20:04:20.262Z,6.28
2023-03-05T20:07:07.379Z,5.65
2023-03-05T20:09:55.939Z,6.30
2023-03-05T20:12:44.227Z,5.40
2023-03-05T20:15:30.448Z,5.47
2023-03-05T20:21:23.911Z,4.28
2023-03-05T20:24:13.897Z,4.63
2023-03-05T20:27:00.727Z,4.45
2023-03-05T20:29:46.969Z,4.55
2023-03-05T20:32:35.786Z,4.90
2023-03-05T20:35:22.519Z,5.50
2023-03-05T20:38:31.643Z,4.72
2023-03-05T20:41:21.013Z,4.68
2023-03-05T20:44:07.857Z,4.95
2023-03-05T20:47:32.586Z,4.10
2023-03-05T20:50:27.043Z,4.10
2023-03-05T20:53:14.392Z,3.42
2023-03-05T20:56:00.616Z,3.47
2023-03-05T20:58:47.069Z,3.78
2023-03-05T21:01:34.948Z,5.13
2023-03-05T21:04:20.822Z,4.00
2023-03-05T21:07:06.873Z,4.70
2023-03-05T21:09:52.900Z,4.95
2023-03-05T21:12:39.031Z,4.68
2023-03-05T21:15:28.749Z,5.70
2023-03-05T21:18:15.022Z,5.80
2023-03-05T21:21:01.700Z,5.00
2023-03-05T21:23:47.928Z,5.80
2023-03-05T21:26:35.375Z,6.68
2023-03-05T21:29:21.311Z,5.55
2023-03-05T21:32:07.833Z,6.97
2023-03-05T21:34:54.255Z,5.97
2023-03-05T21:37:42.762Z,5.07
2023-03-05T21:40:29.932Z,5.78
2023-03-05T21:43:19.201Z,4.88
2023-03-05T21:46:05.350Z,4.82
2023-03-05T21:48:51.212Z,5.03
2023-03-05T21:51:59.306Z,3.50
2023-03-05T21:54:45.698Z,3.95
2023-03-05T21:57:32.494Z,3.55
2023-03-05T22:00:22.850Z,2.70
2023-03-05T22:03:08.954Z,2.90
2023-03-05T22:05:56.157Z,2.95
2023-03-05T22:08:42.243Z,2.38
2023-03-05T22:11:28.184Z,2.53
2023-03-05T22:14:15.651Z,2.28
2023-03-05T22:17:03.645Z,2.80
2023-03-05T22:19:50.060Z,2.55
2023-03-05T22:22:36.713Z,2.67
2023-03-05T22:25:22.719Z,2.53
2023-03-05T22:28:09.929Z,2.38
2023-03-05T22:30:56.810Z,1.95
2023-03-05T22:33:42.937Z,1.95
2023-03-05T22:36:28.959Z,2.10
2023-03-05T22:39:15.137Z,2.42
2023-03-05T22:42:01.315Z,2.92
2023-03-05T22:44:47.705Z,3.63
2023-03-05T22:47:34.389Z,3.28
2023-03-05T22:50:20.817Z,3.00
2023-03-05T22:53:07.248Z,3.50
2023-03-05T22:55:54.288Z,3.47
2023-03-05T22:58:40.883Z,2.85
2023-03-05T23:01:27.537Z,2.80
2023-03-05T23:04:38.966Z,3.38
2023-03-05T23:07:30.533Z,3.38
2023-03-05T23:10:26.950Z,3.50
2023-03-05T23:13:14.407Z,3.20
2023-03-05T23:16:00.626Z,2.80
2023-03-05T23:18:46.857Z,2.88
2023-03-05T23:21:33.167Z,2.95
2023-03-05T23:24:19.442Z,2.55
2023-03-05T23:27:06.691Z,3.17
2023-03-05T23:30:20.122Z,2.80
2023-03-05T23:33:06.446Z,2.67
2023-03-05T23:35:56.873Z,2.70
2023-03-05T23:38:43.061Z,3.10
2023-03-05T23:41:29.931Z,2.70
2023-03-05T23:44:16.241Z,2.70
2023-03-05T23:47:02.695Z,2.33
2023-03-05T23:49:48.910Z,2.33
2023-03-05T23:52:35.264Z,2.40
2023-03-05T23:55:22.803Z,2.13
2023-03-05T23:58:09.486Z,2.22
